Main page
METAR-TAF:

METAR-TAF

Airports :

Whiteside County Airport (Jos. H. Bittorf Field)

Sterling / Rock Falls, Illinois, United States

latitude: 41-45N, longitude: 089-40W, elevation: 646 ft

Current weather observation

The report was made 31 minutes ago, at 14:56 UTC
Wind 10 mph from the West/Southwest
Temperature 30°F
Humidity 69%
Pressure 29.80 in. Hg
Visibility: 10 miles
Clear sky

METAR: KSQI 211456Z 25009KT 10SM CLR M01/M06 A2980 RMK AO2 SLP960 T10111056 53007 FZRANO

Time: 09:27 (15:27 UTC)


TAF: missing

Weather observations and forecasts of more than 4000 airports (METAR and TAF reports).

The available stations are represented by yellow and red dots on the map.

Hover mouse over dot to see the name of the station.

Then click to see weather observations and forecasts.

To change the map : click on the green buttons with a black cross to zoom in, on the green button with a dash to zoom out, or on the green arrows for adjacent maps.


METAR-TAF: